createdAt,value
2022-12-25T00:00:55.564Z,8.40
2022-12-25T00:03:22.442Z,8.44
2022-12-25T00:05:49.120Z,8.49
2022-12-25T00:08:15.751Z,8.49
2022-12-25T00:10:45.177Z,8.40
2022-12-25T00:13:12.267Z,8.15
2022-12-25T00:15:41.903Z,8.35
2022-12-25T00:18:08.700Z,8.49
2022-12-25T00:20:36.380Z,8.44
2022-12-25T00:23:02.962Z,8.49
2022-12-25T00:25:29.658Z,8.42
2022-12-25T00:27:56.231Z,8.56
2022-12-25T00:30:22.874Z,8.39
2022-12-25T00:32:49.513Z,8.17
2022-12-25T00:35:16.172Z,8.32
2022-12-25T00:37:42.809Z,8.34
2022-12-25T00:40:09.996Z,8.42
2022-12-25T00:42:36.595Z,8.55
2022-12-25T00:45:03.540Z,8.56
2022-12-25T00:47:30.355Z,8.60
2022-12-25T00:49:56.950Z,8.55
2022-12-25T00:52:23.545Z,8.54
2022-12-25T00:54:50.093Z,8.54
2022-12-25T00:57:16.713Z,8.51
2022-12-25T00:59:43.320Z,8.50
2022-12-25T01:02:25.566Z,8.33
2022-12-25T01:04:57.014Z,8.56
2022-12-25T01:07:26.388Z,8.52
2022-12-25T01:10:11.705Z,8.51
2022-12-25T01:12:41.660Z,8.55
2022-12-25T01:15:10.153Z,8.58
2022-12-25T01:17:36.888Z,8.57
2022-12-25T01:20:04.299Z,8.60
2022-12-25T01:22:30.909Z,8.58
2022-12-25T01:24:57.536Z,8.56
2022-12-25T01:27:24.156Z,8.56
2022-12-25T01:29:50.772Z,8.55
2022-12-25T01:32:17.419Z,8.51
2022-12-25T01:34:44.245Z,8.31
2022-12-25T01:37:11.226Z,8.44
2022-12-25T01:39:37.925Z,8.52
2022-12-25T01:42:04.608Z,8.41
2022-12-25T01:44:37.142Z,8.52
2022-12-25T01:47:05.696Z,8.47
2022-12-25T01:49:34.751Z,8.31
2022-12-25T01:52:24.783Z,8.06
2022-12-25T01:54:57.936Z,8.33
2022-12-25T01:57:27.259Z,8.52
2022-12-25T01:59:56.340Z,8.34
2022-12-25T02:02:23.509Z,7.96
2022-12-25T02:04:58.478Z,7.86
2022-12-25T02:07:26.978Z,8.14
2022-12-25T02:09:53.865Z,8.18
2022-12-25T02:12:25.977Z,8.07
2022-12-25T02:15:01.125Z,8.01
2022-12-25T02:17:50.147Z,7.97
2022-12-25T02:20:22.461Z,8.04
2022-12-25T02:23:17.589Z,8.03
2022-12-25T02:26:09.303Z,8.05
2022-12-25T02:28:45.965Z,7.98
2022-12-25T02:31:12.802Z,8.06
2022-12-25T02:34:03.048Z,8.12
2022-12-25T02:36:46.167Z,8.16
2022-12-25T02:39:46.484Z,8.11
2022-12-25T02:42:21.405Z,8.13
2022-12-25T02:45:09.786Z,8.17
2022-12-25T02:47:56.700Z,8.12
2022-12-25T02:50:44.149Z,7.55
2022-12-25T02:53:30.662Z,7.79
2022-12-25T02:56:17.045Z,7.84
2022-12-25T02:59:05.096Z,7.91
2022-12-25T03:01:53.151Z,8.02
2022-12-25T03:04:41.341Z,7.98
2022-12-25T03:07:20.602Z,7.75
2022-12-25T03:10:15.855Z,7.73
2022-12-25T03:13:25.936Z,7.85
2022-12-25T03:16:11.045Z,7.88
2022-12-25T03:18:37.888Z,7.89
2022-12-25T03:21:40.234Z,7.87
2022-12-25T03:24:25.701Z,7.88
2022-12-25T03:26:55.977Z,7.94
2022-12-25T03:29:47.087Z,7.92
2022-12-25T03:32:37.704Z,7.65
2022-12-25T03:35:47.627Z,7.76
2022-12-25T03:38:47.939Z,7.76
2022-12-25T03:42:01.990Z,7.80
2022-12-25T03:45:25.607Z,7.78
2022-12-25T03:48:13.045Z,7.64
2022-12-25T03:51:06.668Z,7.64
2022-12-25T03:54:02.766Z,7.57
2022-12-25T03:56:49.501Z,7.48
2022-12-25T03:59:39.821Z,7.44
2022-12-25T04:02:25.319Z,7.56
2022-12-25T04:05:10.554Z,7.49
2022-12-25T04:07:55.512Z,7.45
2022-12-25T04:10:40.862Z,7.23
2022-12-25T04:13:26.197Z,7.29
2022-12-25T04:16:12.304Z,7.33
2022-12-25T04:18:57.467Z,7.31
2022-12-25T04:21:43.370Z,7.37
2022-12-25T04:24:29.452Z,7.42
2022-12-25T04:27:14.740Z,7.53
2022-12-25T04:30:00.009Z,7.63
2022-12-25T04:32:45.338Z,7.62
2022-12-25T04:35:30.628Z,7.39
2022-12-25T04:37:57.340Z,7.44
2022-12-25T04:40:24.131Z,7.52
2022-12-25T04:42:51.736Z,7.46
2022-12-25T04:45:18.571Z,7.56
2022-12-25T04:47:45.156Z,7.60
2022-12-25T04:50:12.016Z,7.52
2022-12-25T04:52:41.091Z,7.58
2022-12-25T04:55:09.297Z,7.64
2022-12-25T04:57:36.889Z,7.59
2022-12-25T05:00:05.247Z,7.63
2022-12-25T05:02:32.298Z,7.60
2022-12-25T05:04:59.035Z,7.57
2022-12-25T05:07:25.709Z,7.63
2022-12-25T05:09:52.323Z,7.63
2022-12-25T05:12:18.965Z,7.53
2022-12-25T05:14:45.558Z,7.59
2022-12-25T05:17:12.150Z,7.47
2022-12-25T05:19:38.726Z,7.55
2022-12-25T05:22:05.347Z,7.65
2022-12-25T05:24:32.061Z,7.69
2022-12-25T05:26:58.704Z,7.68
2022-12-25T05:29:25.409Z,7.73
2022-12-25T05:31:52.100Z,7.79
2022-12-25T05:34:18.747Z,7.79
2022-12-25T05:36:45.384Z,7.64
2022-12-25T05:39:12.020Z,7.65
2022-12-25T05:41:38.681Z,7.77
2022-12-25T05:44:05.306Z,7.84
2022-12-25T05:46:32.085Z,7.79
2022-12-25T05:48:58.759Z,7.86
2022-12-25T05:51:26.178Z,7.89
2022-12-25T05:53:52.995Z,7.92
2022-12-25T05:56:19.588Z,7.94
2022-12-25T05:58:46.219Z,7.95
2022-12-25T06:01:19.941Z,7.97
2022-12-25T06:03:46.949Z,7.95
2022-12-25T06:06:22.240Z,7.94
2022-12-25T06:08:48.960Z,7.98
2022-12-25T06:11:15.943Z,7.97
2022-12-25T06:13:43.438Z,7.94
2022-12-25T06:16:12.085Z,7.87
2022-12-25T06:18:41.421Z,7.92
2022-12-25T06:21:09.419Z,7.97
2022-12-25T06:23:37.260Z,7.89
2022-12-25T06:26:09.814Z,7.95
2022-12-25T06:28:36.962Z,7.75
2022-12-25T06:31:08.374Z,7.86
2022-12-25T06:33:36.024Z,7.77
2022-12-25T06:36:11.865Z,7.81
2022-12-25T06:38:38.492Z,7.82
2022-12-25T06:41:13.679Z,7.77
2022-12-25T06:43:40.608Z,7.83
2022-12-25T06:46:10.271Z,7.78
2022-12-25T06:48:38.069Z,7.89
2022-12-25T06:51:06.326Z,7.87
2022-12-25T06:53:39.983Z,7.94
2022-12-25T06:56:16.016Z,7.96
2022-12-25T06:58:44.073Z,7.95
2022-12-25T07:01:16.855Z,7.91
2022-12-25T07:03:46.273Z,7.87
2022-12-25T07:06:12.953Z,7.84
2022-12-25T07:08:39.687Z,7.90
2022-12-25T07:11:06.678Z,7.86
2022-12-25T07:13:33.592Z,7.70
2022-12-25T07:16:02.118Z,7.77
2022-12-25T07:18:29.367Z,7.79
2022-12-25T07:20:56.038Z,7.87
2022-12-25T07:23:23.435Z,7.70
2022-12-25T07:25:57.289Z,7.82
2022-12-25T07:28:24.134Z,7.68
2022-12-25T07:30:50.833Z,7.83
2022-12-25T07:33:17.526Z,7.84
2022-12-25T07:35:44.473Z,7.87
2022-12-25T07:38:11.431Z,7.82
2022-12-25T07:40:38.608Z,7.66
2022-12-25T07:43:05.323Z,7.76
2022-12-25T07:45:32.002Z,7.75
2022-12-25T07:48:04.323Z,7.77
2022-12-25T07:50:31.985Z,7.90
2022-12-25T07:52:58.575Z,8.01
2022-12-25T07:55:25.195Z,8.05
2022-12-25T07:57:52.536Z,8.06
2022-12-25T08:00:19.623Z,7.73
2022-12-25T08:02:49.882Z,7.98
2022-12-25T08:05:16.970Z,7.95
2022-12-25T08:07:43.665Z,7.93
2022-12-25T08:10:10.670Z,7.95
2022-12-25T08:12:37.278Z,8.09
2022-12-25T08:15:04.250Z,8.19
2022-12-25T08:17:30.831Z,8.20
2022-12-25T08:19:57.465Z,8.28
2022-12-25T08:22:24.044Z,8.27
2022-12-25T08:24:50.623Z,8.34
2022-12-25T08:27:17.259Z,8.41
2022-12-25T08:29:44.726Z,8.47
2022-12-25T08:32:11.361Z,8.49
2022-12-25T08:34:38.873Z,8.59
2022-12-25T08:37:05.514Z,8.69
2022-12-25T08:39:32.367Z,8.74
2022-12-25T08:41:58.983Z,8.77
2022-12-25T08:44:25.576Z,8.73
2022-12-25T08:46:52.237Z,8.87
2022-12-25T08:49:19.397Z,9.08
2022-12-25T08:51:46.220Z,9.25
2022-12-25T08:54:12.858Z,9.21
2022-12-25T08:56:39.520Z,9.50
2022-12-25T08:59:06.171Z,9.74
2022-12-25T09:01:32.936Z,9.88
2022-12-25T09:03:59.665Z,9.93
2022-12-25T09:06:26.287Z,10.05
2022-12-25T09:08:52.933Z,10.04
2022-12-25T09:11:20.316Z,10.15
2022-12-25T09:13:47.938Z,10.11
2022-12-25T09:16:18.943Z,10.59
2022-12-25T09:18:45.739Z,10.61
2022-12-25T09:21:14.167Z,10.76
2022-12-25T09:23:42.269Z,10.86
2022-12-25T09:26:12.853Z,10.77
2022-12-25T09:28:43.663Z,10.76
2022-12-25T09:31:13.491Z,10.64
2022-12-25T09:33:40.133Z,10.71
2022-12-25T09:36:08.329Z,11.00
2022-12-25T09:38:36.015Z,11.33
2022-12-25T09:41:07.783Z,11.35
2022-12-25T09:43:46.384Z,11.52
2022-12-25T09:46:17.300Z,11.51
2022-12-25T09:48:55.299Z,11.45
2022-12-25T09:51:24.594Z,11.28
2022-12-25T09:54:03.071Z,11.35
2022-12-25T09:56:29.688Z,11.35
2022-12-25T09:58:56.406Z,11.58
2022-12-25T10:01:50.446Z,12.02
2022-12-25T10:04:41.176Z,12.28
2022-12-25T10:07:37.065Z,11.94
2022-12-25T10:10:28.010Z,11.86
2022-12-25T10:13:24.095Z,12.60
2022-12-25T10:16:07.081Z,12.55
2022-12-25T10:18:51.607Z,13.09
2022-12-25T10:21:19.395Z,13.19
2022-12-25T10:23:54.770Z,13.43
2022-12-25T10:26:25.175Z,13.58
2022-12-25T10:29:14.823Z,13.38
2022-12-25T10:31:45.285Z,13.35
2022-12-25T10:34:13.231Z,13.52
2022-12-25T10:36:42.038Z,13.89
2022-12-25T10:39:16.363Z,14.12
2022-12-25T10:41:45.922Z,14.22
2022-12-25T10:44:20.803Z,14.18
2022-12-25T10:46:52.802Z,14.14
2022-12-25T10:49:23.031Z,14.43
2022-12-25T10:51:50.326Z,14.62
2022-12-25T10:54:35.792Z,14.15
2022-12-25T10:57:23.909Z,14.25
2022-12-25T10:59:57.242Z,14.14
2022-12-25T11:02:25.911Z,14.09
2022-12-25T11:05:02.447Z,14.52
2022-12-25T11:07:30.237Z,14.73
2022-12-25T11:10:05.955Z,14.92
2022-12-25T11:12:44.546Z,14.76
2022-12-25T11:15:36.429Z,15.74
2022-12-25T11:18:05.184Z,16.62
2022-12-25T11:20:33.264Z,16.78
2022-12-25T11:22:59.902Z,17.36
2022-12-25T11:25:28.163Z,17.87
2022-12-25T11:28:00.034Z,17.94
2022-12-25T11:30:29.852Z,17.45
2022-12-25T11:33:00.441Z,16.77
2022-12-25T11:35:31.993Z,16.44
2022-12-25T11:37:58.795Z,16.79
2022-12-25T11:40:30.871Z,18.05
2022-12-25T11:43:19.823Z,18.45
2022-12-25T11:46:00.239Z,18.77
2022-12-25T11:48:41.322Z,18.50
2022-12-25T11:51:10.039Z,19.27
2022-12-25T11:53:43.996Z,21.34
2022-12-25T11:56:29.317Z,20.55
2022-12-25T11:59:07.155Z,19.90
2022-12-25T12:01:42.869Z,19.66
2022-12-25T12:04:43.558Z,19.78
2022-12-25T12:07:17.338Z,19.95
2022-12-25T12:09:55.969Z,20.26
2022-12-25T12:12:28.874Z,19.69
2022-12-25T12:14:55.348Z,18.54
2022-12-25T12:17:22.031Z,18.24
2022-12-25T12:19:48.773Z,18.36
2022-12-25T12:22:24.959Z,18.11
2022-12-25T12:24:58.552Z,18.28
2022-12-25T12:27:43.659Z,17.18
2022-12-25T12:30:34.780Z,17.00
2022-12-25T12:33:05.646Z,16.14
2022-12-25T12:35:36.109Z,16.39
2022-12-25T12:38:06.612Z,16.89
2022-12-25T12:40:40.841Z,17.13
2022-12-25T12:43:33.970Z,17.46
2022-12-25T12:46:19.169Z,17.38
2022-12-25T12:48:51.209Z,17.80
2022-12-25T12:51:32.899Z,17.94
2022-12-25T12:54:07.352Z,18.02
2022-12-25T12:56:33.961Z,17.73
2022-12-25T12:59:00.605Z,17.83
2022-12-25T13:01:27.305Z,17.71
2022-12-25T13:04:11.952Z,17.50
2022-12-25T13:06:51.536Z,17.00
2022-12-25T13:09:35.968Z,17.28
2022-12-25T13:12:08.262Z,17.24
2022-12-25T13:14:36.234Z,17.59
2022-12-25T13:17:07.613Z,18.34
2022-12-25T13:19:36.588Z,18.04
2022-12-25T13:22:06.853Z,17.61
2022-12-25T13:24:36.078Z,16.75
2022-12-25T13:27:21.710Z,17.80
2022-12-25T13:29:48.346Z,17.37
2022-12-25T13:32:22.999Z,17.85
2022-12-25T13:34:50.625Z,18.32
2022-12-25T13:37:20.875Z,18.29
2022-12-25T13:39:47.445Z,18.18
2022-12-25T13:42:17.499Z,18.01
2022-12-25T13:44:47.950Z,18.22
2022-12-25T13:47:22.572Z,18.19
2022-12-25T13:49:51.159Z,17.86
2022-12-25T13:52:24.312Z,17.52
2022-12-25T13:54:58.947Z,16.91
2022-12-25T13:57:30.322Z,17.29
2022-12-25T13:59:57.809Z,16.51
2022-12-25T14:02:30.275Z,15.68
2022-12-25T14:04:57.099Z,16.15
2022-12-25T14:07:24.769Z,16.58
2022-12-25T14:09:57.564Z,16.86
2022-12-25T14:12:25.863Z,16.79
2022-12-25T14:14:53.692Z,16.60
2022-12-25T14:17:21.194Z,16.45
2022-12-25T14:19:58.775Z,16.22
2022-12-25T14:22:30.075Z,16.54
2022-12-25T14:24:56.728Z,16.90
2022-12-25T14:27:28.779Z,16.96
2022-12-25T14:29:58.567Z,16.95
2022-12-25T14:32:29.141Z,17.04
2022-12-25T14:34:59.621Z,17.00
2022-12-25T14:37:30.613Z,17.15
2022-12-25T14:40:01.422Z,17.06
2022-12-25T14:42:30.925Z,17.14
2022-12-25T14:45:03.495Z,16.83
2022-12-25T14:47:32.417Z,16.70
2022-12-25T14:49:59.952Z,16.59
2022-12-25T14:52:31.687Z,16.32
2022-12-25T14:55:01.805Z,16.19
2022-12-25T14:57:34.442Z,15.71
2022-12-25T15:00:06.391Z,16.08
2022-12-25T15:02:45.849Z,15.96
2022-12-25T15:05:42.371Z,15.82
2022-12-25T15:08:08.921Z,15.37
2022-12-25T15:13:23.383Z,15.04
2022-12-25T15:15:49.991Z,14.99
2022-12-25T15:18:17.563Z,14.95
2022-12-25T15:20:44.276Z,14.58
2022-12-25T15:23:20.147Z,14.73
2022-12-25T15:25:47.625Z,14.46
2022-12-25T15:28:14.505Z,14.47
2022-12-25T15:30:41.416Z,14.48
2022-12-25T15:33:16.662Z,14.48
2022-12-25T15:35:44.482Z,14.35
2022-12-25T15:38:14.156Z,14.29
2022-12-25T15:40:41.742Z,14.22
2022-12-25T15:43:38.992Z,13.86
2022-12-25T15:45:58.903Z,13.50
2022-12-25T15:48:25.495Z,13.40
2022-12-25T15:50:52.133Z,13.29
2022-12-25T15:53:18.750Z,13.00
2022-12-25T15:55:45.366Z,13.09
2022-12-25T15:58:12.963Z,12.81
2022-12-25T16:00:39.617Z,12.86
2022-12-25T16:03:06.284Z,12.64
2022-12-25T16:05:33.122Z,12.66
2022-12-25T16:07:59.768Z,12.50
2022-12-25T16:10:26.351Z,11.94
2022-12-25T16:12:52.970Z,12.10
2022-12-25T16:15:19.569Z,12.22
2022-12-25T16:17:46.204Z,12.20
2022-12-25T16:20:13.245Z,12.07
2022-12-25T16:22:40.080Z,11.99
2022-12-25T16:25:13.811Z,11.99
2022-12-25T16:27:40.584Z,11.82
2022-12-25T16:30:08.003Z,11.81
2022-12-25T16:32:34.698Z,11.72
2022-12-25T16:35:01.366Z,11.39
2022-12-25T16:37:28.761Z,11.17
2022-12-25T16:39:55.493Z,10.76
2022-12-25T16:42:22.219Z,10.87
2022-12-25T16:44:48.832Z,10.76
2022-12-25T16:47:15.446Z,10.64
2022-12-25T16:49:42.133Z,10.40
2022-12-25T16:52:08.736Z,9.93
2022-12-25T16:54:35.432Z,9.81
2022-12-25T16:57:02.041Z,9.96
2022-12-25T16:59:32.993Z,9.87
2022-12-25T17:01:59.750Z,9.98
2022-12-25T17:04:27.879Z,9.92
2022-12-25T17:06:54.564Z,9.98
2022-12-25T17:09:21.175Z,9.99
2022-12-25T17:11:47.825Z,9.59
2022-12-25T17:14:14.429Z,9.67
2022-12-25T17:16:41.287Z,9.49
2022-12-25T17:19:16.380Z,9.43
2022-12-25T17:21:43.041Z,9.42
2022-12-25T17:24:09.962Z,8.51
2022-12-25T17:26:36.647Z,8.85
2022-12-25T17:29:03.847Z,8.99
2022-12-25T17:31:30.533Z,8.76
2022-12-25T17:33:57.832Z,8.55
2022-12-25T17:36:24.493Z,8.17
2022-12-25T17:38:51.260Z,8.58
2022-12-25T17:41:19.558Z,8.69
2022-12-25T17:43:47.329Z,8.68
2022-12-25T17:46:21.681Z,8.77
2022-12-25T17:48:51.877Z,8.76
2022-12-25T17:51:22.025Z,8.80
2022-12-25T17:53:51.573Z,8.84
2022-12-25T17:56:19.995Z,8.68
2022-12-25T17:58:51.803Z,8.63
2022-12-25T18:01:19.963Z,8.64
2022-12-25T18:03:47.151Z,8.31
2022-12-25T18:06:19.296Z,8.33
2022-12-25T18:08:47.004Z,8.42
2022-12-25T18:11:20.633Z,8.48
2022-12-25T18:13:50.015Z,8.34
2022-12-25T18:16:18.466Z,8.29
2022-12-25T18:18:51.381Z,7.98
2022-12-25T18:21:19.513Z,8.15
2022-12-25T18:23:46.533Z,8.20
2022-12-25T18:26:13.627Z,8.13
2022-12-25T18:28:42.488Z,8.08
2022-12-25T18:31:16.882Z,7.99
2022-12-25T18:33:44.723Z,7.97
2022-12-25T18:36:13.469Z,7.83
2022-12-25T18:38:40.559Z,7.83
2022-12-25T18:41:09.457Z,7.85
2022-12-25T18:43:52.840Z,7.28
2022-12-25T18:46:26.972Z,7.44
2022-12-25T18:48:55.424Z,7.41
2022-12-25T18:51:22.326Z,7.30
2022-12-25T18:53:49.026Z,7.30
2022-12-25T18:56:17.556Z,7.18
2022-12-25T18:58:45.520Z,7.33
2022-12-25T19:01:21.613Z,7.30
2022-12-25T19:03:49.856Z,6.72
2022-12-25T19:06:25.232Z,6.47
2022-12-25T19:08:52.276Z,6.72
2022-12-25T19:11:19.645Z,6.53
2022-12-25T19:13:46.573Z,6.78
2022-12-25T19:16:14.273Z,6.86
2022-12-25T19:18:40.956Z,6.59
2022-12-25T19:21:09.317Z,6.45
2022-12-25T19:23:37.856Z,6.47
2022-12-25T19:26:06.410Z,6.74
2022-12-25T19:28:33.185Z,6.82
2022-12-25T19:31:00.918Z,6.82
2022-12-25T19:33:27.939Z,6.73
2022-12-25T19:35:59.568Z,6.71
2022-12-25T19:38:26.394Z,6.70
2022-12-25T19:41:00.843Z,6.46
2022-12-25T19:43:33.676Z,6.27
2022-12-25T19:46:01.834Z,6.50
2022-12-25T19:48:29.490Z,6.51
2022-12-25T19:50:56.169Z,6.58
2022-12-25T19:53:26.058Z,6.53
2022-12-25T19:55:53.696Z,6.59
2022-12-25T19:58:21.968Z,6.53
2022-12-25T20:01:05.543Z,6.61
2022-12-25T20:03:33.799Z,6.53
2022-12-25T20:06:01.097Z,6.25
2022-12-25T20:08:28.081Z,5.98
2022-12-25T20:10:55.001Z,5.62
2022-12-25T20:13:21.776Z,5.92
2022-12-25T20:15:48.733Z,5.72
2022-12-25T20:18:16.871Z,5.81
2022-12-25T20:20:45.007Z,5.70
2022-12-25T20:23:11.710Z,5.97
2022-12-25T20:25:42.076Z,6.06
2022-12-25T20:28:09.152Z,6.14
2022-12-25T20:30:39.587Z,6.08
2022-12-25T20:33:06.376Z,6.00
2022-12-25T20:35:33.081Z,6.01
2022-12-25T20:37:59.695Z,5.69
2022-12-25T20:40:26.325Z,5.49
2022-12-25T20:42:53.001Z,5.66
2022-12-25T20:45:19.658Z,5.88
2022-12-25T20:47:46.273Z,5.49
2022-12-25T20:50:12.908Z,5.50
2022-12-25T20:52:39.496Z,5.58
2022-12-25T20:55:06.302Z,5.57
2022-12-25T20:57:33.734Z,5.65
2022-12-25T21:00:00.390Z,5.58
2022-12-25T21:02:35.515Z,5.65
2022-12-25T21:05:04.881Z,5.78
2022-12-25T21:07:31.559Z,5.57
2022-12-25T21:09:59.241Z,5.48
2022-12-25T21:12:26.339Z,5.55
2022-12-25T21:14:52.958Z,5.63
2022-12-25T21:17:19.593Z,5.80
2022-12-25T21:19:46.248Z,5.60
2022-12-25T21:22:12.899Z,5.71
2022-12-25T21:24:39.508Z,5.75
2022-12-25T21:27:06.105Z,5.62
2022-12-25T21:29:32.735Z,5.44
2022-12-25T21:32:17.836Z,5.65
2022-12-25T21:34:44.533Z,5.61
2022-12-25T21:37:11.144Z,5.60
2022-12-25T21:39:37.779Z,5.24
2022-12-25T21:42:04.699Z,5.44
2022-12-25T21:44:31.402Z,5.39
2022-12-25T21:46:58.000Z,5.29
2022-12-25T21:49:43.247Z,5.29
2022-12-25T21:52:09.907Z,5.51
2022-12-25T21:54:36.573Z,5.45
2022-12-25T21:57:03.479Z,5.59
2022-12-25T21:59:30.132Z,5.39
2022-12-25T22:01:56.901Z,5.53
2022-12-25T22:04:23.806Z,5.33
2022-12-25T22:07:09.367Z,5.60
2022-12-25T22:09:36.266Z,5.55
2022-12-25T22:12:22.192Z,5.21
2022-12-25T22:14:56.629Z,5.54
2022-12-25T22:17:46.596Z,5.57
2022-12-25T22:20:19.681Z,5.34
2022-12-25T22:22:46.476Z,5.45
2022-12-25T22:25:13.906Z,5.58
2022-12-25T22:27:42.292Z,5.61
2022-12-25T22:30:15.374Z,5.63
2022-12-25T22:32:42.383Z,5.66
2022-12-25T22:35:10.540Z,5.76
2022-12-25T22:37:37.254Z,5.62
2022-12-25T22:40:05.979Z,5.66
2022-12-25T22:42:32.922Z,5.64
2022-12-25T22:44:59.544Z,5.62
2022-12-25T22:47:26.152Z,5.71
2022-12-25T22:49:53.094Z,5.83
2022-12-25T22:52:19.900Z,5.96
2022-12-25T22:54:46.573Z,5.84
2022-12-25T22:57:13.208Z,5.67
2022-12-25T22:59:40.169Z,5.89
2022-12-25T23:02:06.928Z,5.94
2022-12-25T23:04:33.768Z,5.86
2022-12-25T23:07:00.504Z,5.99
2022-12-25T23:09:29.916Z,5.87
2022-12-25T23:11:58.014Z,5.85
2022-12-25T23:14:41.789Z,5.97
2022-12-25T23:17:31.537Z,6.10
2022-12-25T23:20:18.809Z,6.03
2022-12-25T23:23:04.873Z,5.98
2022-12-25T23:25:50.053Z,6.05
2022-12-25T23:28:36.631Z,5.94
2022-12-25T23:31:03.720Z,6.08
2022-12-25T23:33:30.367Z,6.11
2022-12-25T23:35:56.988Z,6.08
2022-12-25T23:38:23.693Z,6.18
2022-12-25T23:40:50.285Z,6.13
2022-12-25T23:43:16.914Z,6.07
2022-12-25T23:45:43.555Z,6.13
2022-12-25T23:48:10.180Z,6.27
2022-12-25T23:50:36.800Z,6.22
2022-12-25T23:53:03.409Z,6.11
2022-12-25T23:55:30.063Z,6.11
2022-12-25T23:57:56.671Z,6.04
